sensor_id;sensor_type;location;lat;lon;timestamp;P1;durP1;ratioP1;P2;durP2;ratioP2
15342;SDS011;7771;48.478;8.936;2022-08-20T00:01:25;2.30;;;1.98;;
15342;SDS011;7771;48.478;8.936;2022-08-20T00:03:52;3.00;;;2.05;;
15342;SDS011;7771;48.478;8.936;2022-08-20T00:06:20;3.05;;;2.25;;
15342;SDS011;7771;48.478;8.936;2022-08-20T00:08:46;2.37;;;2.17;;
15342;SDS011;7771;48.478;8.936;2022-08-20T00:11:14;3.25;;;1.95;;
15342;SDS011;7771;48.478;8.936;2022-08-20T00:13:42;2.35;;;2.15;;
15342;SDS011;7771;48.478;8.936;2022-08-20T00:16:05;2.53;;;2.33;;
15342;SDS011;7771;48.478;8.936;2022-08-20T00:18:33;4.07;;;2.45;;
15342;SDS011;7771;48.478;8.936;2022-08-20T00:21:00;2.70;;;2.50;;
15342;SDS011;7771;48.478;8.936;2022-08-20T00:23:27;2.90;;;2.70;;
15342;SDS011;7771;48.478;8.936;2022-08-20T00:25:54;2.47;;;2.22;;
15342;SDS011;7771;48.478;8.936;2022-08-20T00:28:22;3.20;;;2.50;;
15342;SDS011;7771;48.478;8.936;2022-08-20T00:30:48;2.60;;;2.40;;
15342;SDS011;7771;48.478;8.936;2022-08-20T00:33:17;2.87;;;2.65;;
15342;SDS011;7771;48.478;8.936;2022-08-20T00:35:43;3.53;;;3.22;;
15342;SDS011;7771;48.478;8.936;2022-08-20T00:38:08;3.80;;;3.45;;
15342;SDS011;7771;48.478;8.936;2022-08-20T00:40:37;4.18;;;3.10;;
15342;SDS011;7771;48.478;8.936;2022-08-20T00:43:05;2.95;;;2.72;;
15342;SDS011;7771;48.478;8.936;2022-08-20T00:45:32;3.85;;;3.15;;
15342;SDS011;7771;48.478;8.936;2022-08-20T00:47:59;3.95;;;3.55;;
15342;SDS011;7771;48.478;8.936;2022-08-20T00:50:34;4.55;;;2.92;;
15342;SDS011;7771;48.478;8.936;2022-08-20T00:53:03;5.50;;;3.35;;
15342;SDS011;7771;48.478;8.936;2022-08-20T00:55:29;3.28;;;2.97;;
15342;SDS011;7771;48.478;8.936;2022-08-20T00:57:56;3.87;;;3.20;;
15342;SDS011;7771;48.478;8.936;2022-08-20T01:00:24;3.35;;;3.05;;
15342;SDS011;7771;48.478;8.936;2022-08-20T01:03:06;3.33;;;3.05;;
15342;SDS011;7771;48.478;8.936;2022-08-20T01:05:31;3.60;;;3.25;;
15342;SDS011;7771;48.478;8.936;2022-08-20T01:07:58;5.43;;;3.03;;
15342;SDS011;7771;48.478;8.936;2022-08-20T01:10:26;3.58;;;3.25;;
15342;SDS011;7771;48.478;8.936;2022-08-20T01:12:51;3.28;;;2.85;;
15342;SDS011;7771;48.478;8.936;2022-08-20T01:15:19;3.47;;;2.87;;
15342;SDS011;7771;48.478;8.936;2022-08-20T01:17:48;4.05;;;3.67;;
15342;SDS011;7771;48.478;8.936;2022-08-20T01:20:14;4.05;;;3.40;;
15342;SDS011;7771;48.478;8.936;2022-08-20T01:22:40;3.65;;;3.35;;
15342;SDS011;7771;48.478;8.936;2022-08-20T01:25:20;3.75;;;3.30;;
15342;SDS011;7771;48.478;8.936;2022-08-20T01:27:44;4.07;;;3.62;;
15342;SDS011;7771;48.478;8.936;2022-08-20T01:30:11;3.92;;;3.25;;
15342;SDS011;7771;48.478;8.936;2022-08-20T01:32:38;3.58;;;2.87;;
15342;SDS011;7771;48.478;8.936;2022-08-20T01:35:07;3.22;;;2.92;;
15342;SDS011;7771;48.478;8.936;2022-08-20T01:37:33;5.78;;;3.05;;
15342;SDS011;7771;48.478;8.936;2022-08-20T01:40:00;4.10;;;3.80;;
15342;SDS011;7771;48.478;8.936;2022-08-20T01:42:27;4.03;;;3.30;;
15342;SDS011;7771;48.478;8.936;2022-08-20T01:44:53;3.83;;;3.17;;
15342;SDS011;7771;48.478;8.936;2022-08-20T01:47:23;4.18;;;3.53;;
15342;SDS011;7771;48.478;8.936;2022-08-20T01:49:50;3.55;;;3.25;;
15342;SDS011;7771;48.478;8.936;2022-08-20T01:52:26;4.32;;;3.40;;
15342;SDS011;7771;48.478;8.936;2022-08-20T01:55:09;3.75;;;3.37;;
15342;SDS011;7771;48.478;8.936;2022-08-20T01:57:35;4.00;;;3.58;;
15342;SDS011;7771;48.478;8.936;2022-08-20T02:00:05;3.55;;;3.25;;
15342;SDS011;7771;48.478;8.936;2022-08-20T02:02:30;3.70;;;3.40;;
15342;SDS011;7771;48.478;8.936;2022-08-20T02:04:57;3.75;;;3.45;;
15342;SDS011;7771;48.478;8.936;2022-08-20T02:07:24;4.57;;;3.95;;
15342;SDS011;7771;48.478;8.936;2022-08-20T02:09:52;3.85;;;3.45;;
15342;SDS011;7771;48.478;8.936;2022-08-20T02:12:19;3.97;;;3.60;;
15342;SDS011;7771;48.478;8.936;2022-08-20T02:14:48;4.28;;;3.87;;
15342;SDS011;7771;48.478;8.936;2022-08-20T02:17:13;4.30;;;3.90;;
15342;SDS011;7771;48.478;8.936;2022-08-20T02:19:41;4.90;;;4.03;;
15342;SDS011;7771;48.478;8.936;2022-08-20T02:22:13;4.37;;;3.75;;
15342;SDS011;7771;48.478;8.936;2022-08-20T02:24:41;5.18;;;4.18;;
15342;SDS011;7771;48.478;8.936;2022-08-20T02:27:08;4.40;;;4.00;;
15342;SDS011;7771;48.478;8.936;2022-08-20T02:29:36;8.55;;;4.50;;
15342;SDS011;7771;48.478;8.936;2022-08-20T02:32:03;7.62;;;4.45;;
15342;SDS011;7771;48.478;8.936;2022-08-20T02:34:29;4.72;;;4.32;;
15342;SDS011;7771;48.478;8.936;2022-08-20T02:36:56;5.62;;;5.12;;
15342;SDS011;7771;48.478;8.936;2022-08-20T02:39:22;4.70;;;4.12;;
15342;SDS011;7771;48.478;8.936;2022-08-20T02:41:49;5.53;;;4.93;;
15342;SDS011;7771;48.478;8.936;2022-08-20T02:44:16;4.78;;;4.30;;
15342;SDS011;7771;48.478;8.936;2022-08-20T02:46:43;5.12;;;4.10;;
15342;SDS011;7771;48.478;8.936;2022-08-20T02:49:10;7.50;;;5.03;;
15342;SDS011;7771;48.478;8.936;2022-08-20T02:51:37;5.62;;;5.12;;
15342;SDS011;7771;48.478;8.936;2022-08-20T02:54:04;5.85;;;4.80;;
15342;SDS011;7771;48.478;8.936;2022-08-20T02:56:31;6.25;;;5.40;;
15342;SDS011;7771;48.478;8.936;2022-08-20T02:58:58;5.90;;;5.40;;
15342;SDS011;7771;48.478;8.936;2022-08-20T03:01:25;7.57;;;5.20;;
15342;SDS011;7771;48.478;8.936;2022-08-20T03:03:52;5.70;;;5.20;;
15342;SDS011;7771;48.478;8.936;2022-08-20T03:06:19;6.35;;;5.75;;
15342;SDS011;7771;48.478;8.936;2022-08-20T03:08:45;6.70;;;5.95;;
15342;SDS011;7771;48.478;8.936;2022-08-20T03:11:13;7.47;;;6.07;;
15342;SDS011;7771;48.478;8.936;2022-08-20T03:13:39;7.55;;;5.90;;
15342;SDS011;7771;48.478;8.936;2022-08-20T03:16:06;9.63;;;5.82;;
15342;SDS011;7771;48.478;8.936;2022-08-20T03:18:35;6.62;;;5.80;;
15342;SDS011;7771;48.478;8.936;2022-08-20T03:21:00;5.93;;;5.32;;
15342;SDS011;7771;48.478;8.936;2022-08-20T03:23:26;5.95;;;5.40;;
15342;SDS011;7771;48.478;8.936;2022-08-20T03:25:53;7.32;;;6.10;;
15342;SDS011;7771;48.478;8.936;2022-08-20T03:28:19;5.90;;;5.40;;
15342;SDS011;7771;48.478;8.936;2022-08-20T03:30:47;6.80;;;6.15;;
15342;SDS011;7771;48.478;8.936;2022-08-20T03:33:14;6.82;;;6.12;;
15342;SDS011;7771;48.478;8.936;2022-08-20T03:35:41;7.57;;;5.70;;
15342;SDS011;7771;48.478;8.936;2022-08-20T03:38:10;6.40;;;5.80;;
15342;SDS011;7771;48.478;8.936;2022-08-20T03:40:36;6.55;;;5.95;;
15342;SDS011;7771;48.478;8.936;2022-08-20T03:43:03;8.20;;;5.75;;
15342;SDS011;7771;48.478;8.936;2022-08-20T03:45:30;5.95;;;5.35;;
15342;SDS011;7771;48.478;8.936;2022-08-20T03:47:56;6.35;;;5.75;;
15342;SDS011;7771;48.478;8.936;2022-08-20T03:50:24;6.37;;;5.62;;
15342;SDS011;7771;48.478;8.936;2022-08-20T03:52:50;6.28;;;5.68;;
15342;SDS011;7771;48.478;8.936;2022-08-20T03:55:17;6.30;;;5.28;;
15342;SDS011;7771;48.478;8.936;2022-08-20T03:57:45;5.87;;;5.28;;
15342;SDS011;7771;48.478;8.936;2022-08-20T04:00:11;7.07;;;6.37;;
15342;SDS011;7771;48.478;8.936;2022-08-20T04:02:38;7.03;;;5.93;;
15342;SDS011;7771;48.478;8.936;2022-08-20T04:05:05;5.90;;;5.27;;
15342;SDS011;7771;48.478;8.936;2022-08-20T04:07:32;6.05;;;5.53;;
15342;SDS011;7771;48.478;8.936;2022-08-20T04:09:59;5.60;;;5.07;;
15342;SDS011;7771;48.478;8.936;2022-08-20T04:12:25;6.60;;;5.60;;
15342;SDS011;7771;48.478;8.936;2022-08-20T04:14:53;5.78;;;5.28;;
15342;SDS011;7771;48.478;8.936;2022-08-20T04:17:20;6.78;;;5.60;;
15342;SDS011;7771;48.478;8.936;2022-08-20T04:19:47;5.80;;;5.20;;
15342;SDS011;7771;48.478;8.936;2022-08-20T04:22:15;5.95;;;5.35;;
15342;SDS011;7771;48.478;8.936;2022-08-20T04:24:41;6.12;;;5.53;;
15342;SDS011;7771;48.478;8.936;2022-08-20T04:27:08;6.03;;;5.45;;
15342;SDS011;7771;48.478;8.936;2022-08-20T04:29:35;5.72;;;5.12;;
15342;SDS011;7771;48.478;8.936;2022-08-20T04:32:03;6.18;;;5.22;;
15342;SDS011;7771;48.478;8.936;2022-08-20T04:34:30;6.87;;;5.30;;
15342;SDS011;7771;48.478;8.936;2022-08-20T04:36:58;6.18;;;5.57;;
15342;SDS011;7771;48.478;8.936;2022-08-20T04:39:24;6.95;;;6.28;;
15342;SDS011;7771;48.478;8.936;2022-08-20T04:41:51;6.12;;;5.53;;
15342;SDS011;7771;48.478;8.936;2022-08-20T04:44:17;6.60;;;5.85;;
15342;SDS011;7771;48.478;8.936;2022-08-20T04:46:45;7.60;;;5.37;;
15342;SDS011;7771;48.478;8.936;2022-08-20T04:49:12;6.70;;;5.87;;
15342;SDS011;7771;48.478;8.936;2022-08-20T04:51:39;6.30;;;5.80;;
15342;SDS011;7771;48.478;8.936;2022-08-20T04:54:07;6.03;;;5.25;;
15342;SDS011;7771;48.478;8.936;2022-08-20T04:56:34;5.55;;;5.05;;
15342;SDS011;7771;48.478;8.936;2022-08-20T04:59:00;7.37;;;5.72;;
15342;SDS011;7771;48.478;8.936;2022-08-20T05:01:27;6.45;;;5.85;;
15342;SDS011;7771;48.478;8.936;2022-08-20T05:03:54;6.05;;;5.53;;
15342;SDS011;7771;48.478;8.936;2022-08-20T05:06:22;5.90;;;5.28;;
15342;SDS011;7771;48.478;8.936;2022-08-20T05:08:47;8.35;;;5.62;;
15342;SDS011;7771;48.478;8.936;2022-08-20T05:11:14;7.40;;;6.43;;
15342;SDS011;7771;48.478;8.936;2022-08-20T05:13:41;9.07;;;6.03;;
15342;SDS011;7771;48.478;8.936;2022-08-20T05:16:08;7.05;;;5.65;;
15342;SDS011;7771;48.478;8.936;2022-08-20T05:18:35;6.12;;;5.53;;
15342;SDS011;7771;48.478;8.936;2022-08-20T05:21:03;7.18;;;5.45;;
15342;SDS011;7771;48.478;8.936;2022-08-20T05:23:31;7.00;;;5.30;;
15342;SDS011;7771;48.478;8.936;2022-08-20T05:25:57;6.43;;;5.82;;
15342;SDS011;7771;48.478;8.936;2022-08-20T05:28:26;7.70;;;5.90;;
15342;SDS011;7771;48.478;8.936;2022-08-20T05:30:52;7.37;;;5.90;;
15342;SDS011;7771;48.478;8.936;2022-08-20T05:33:21;6.72;;;5.65;;
15342;SDS011;7771;48.478;8.936;2022-08-20T05:35:46;6.32;;;5.72;;
15342;SDS011;7771;48.478;8.936;2022-08-20T05:38:13;6.55;;;5.95;;
15342;SDS011;7771;48.478;8.936;2022-08-20T05:40:40;7.03;;;5.93;;
15342;SDS011;7771;48.478;8.936;2022-08-20T05:43:06;7.30;;;5.53;;
15342;SDS011;7771;48.478;8.936;2022-08-20T05:45:33;7.30;;;6.05;;
15342;SDS011;7771;48.478;8.936;2022-08-20T05:48:03;6.70;;;5.95;;
15342;SDS011;7771;48.478;8.936;2022-08-20T05:50:32;6.18;;;5.68;;
15342;SDS011;7771;48.478;8.936;2022-08-20T05:52:58;6.40;;;5.80;;
15342;SDS011;7771;48.478;8.936;2022-08-20T05:55:25;6.62;;;5.80;;
15342;SDS011;7771;48.478;8.936;2022-08-20T05:57:55;6.70;;;6.00;;
15342;SDS011;7771;48.478;8.936;2022-08-20T06:00:24;6.32;;;5.72;;
15342;SDS011;7771;48.478;8.936;2022-08-20T06:02:50;6.35;;;5.55;;
15342;SDS011;7771;48.478;8.936;2022-08-20T06:05:22;7.93;;;5.70;;
15342;SDS011;7771;48.478;8.936;2022-08-20T06:07:49;7.85;;;5.68;;
15342;SDS011;7771;48.478;8.936;2022-08-20T06:10:16;5.57;;;5.07;;
15342;SDS011;7771;48.478;8.936;2022-08-20T06:12:43;7.35;;;6.05;;
15342;SDS011;7771;48.478;8.936;2022-08-20T06:15:11;6.75;;;5.50;;
15342;SDS011;7771;48.478;8.936;2022-08-20T06:17:37;7.07;;;5.87;;
15342;SDS011;7771;48.478;8.936;2022-08-20T06:20:06;8.85;;;5.72;;
15342;SDS011;7771;48.478;8.936;2022-08-20T06:22:33;5.82;;;5.30;;
15342;SDS011;7771;48.478;8.936;2022-08-20T06:25:01;8.52;;;7.53;;
15342;SDS011;7771;48.478;8.936;2022-08-20T06:27:28;7.62;;;5.68;;
15342;SDS011;7771;48.478;8.936;2022-08-20T06:29:55;6.57;;;5.75;;
15342;SDS011;7771;48.478;8.936;2022-08-20T06:32:21;6.62;;;5.93;;
15342;SDS011;7771;48.478;8.936;2022-08-20T06:34:48;8.93;;;6.10;;
15342;SDS011;7771;48.478;8.936;2022-08-20T06:37:15;6.68;;;5.97;;
15342;SDS011;7771;48.478;8.936;2022-08-20T06:39:41;6.62;;;5.90;;
15342;SDS011;7771;48.478;8.936;2022-08-20T06:42:09;8.95;;;5.72;;
15342;SDS011;7771;48.478;8.936;2022-08-20T06:44:36;8.30;;;6.00;;
15342;SDS011;7771;48.478;8.936;2022-08-20T06:47:04;6.53;;;5.37;;
15342;SDS011;7771;48.478;8.936;2022-08-20T06:49:33;7.40;;;5.70;;
15342;SDS011;7771;48.478;8.936;2022-08-20T06:52:00;5.82;;;5.20;;
15342;SDS011;7771;48.478;8.936;2022-08-20T06:54:26;5.95;;;5.37;;
15342;SDS011;7771;48.478;8.936;2022-08-20T06:56:55;6.15;;;5.55;;
15342;SDS011;7771;48.478;8.936;2022-08-20T06:59:22;5.43;;;4.93;;
15342;SDS011;7771;48.478;8.936;2022-08-20T07:01:49;9.75;;;5.57;;
15342;SDS011;7771;48.478;8.936;2022-08-20T07:04:16;5.62;;;5.05;;
15342;SDS011;7771;48.478;8.936;2022-08-20T07:06:44;5.47;;;4.97;;
15342;SDS011;7771;48.478;8.936;2022-08-20T07:09:10;5.45;;;4.95;;
15342;SDS011;7771;48.478;8.936;2022-08-20T07:11:37;5.95;;;5.25;;
15342;SDS011;7771;48.478;8.936;2022-08-20T07:14:04;5.80;;;5.20;;
15342;SDS011;7771;48.478;8.936;2022-08-20T07:16:31;7.30;;;5.60;;
15342;SDS011;7771;48.478;8.936;2022-08-20T07:18:57;6.37;;;5.30;;
15342;SDS011;7771;48.478;8.936;2022-08-20T07:21:24;6.75;;;5.10;;
15342;SDS011;7771;48.478;8.936;2022-08-20T07:23:50;5.50;;;5.00;;
15342;SDS011;7771;48.478;8.936;2022-08-20T07:26:18;7.60;;;4.72;;
15342;SDS011;7771;48.478;8.936;2022-08-20T07:28:45;5.95;;;5.05;;
15342;SDS011;7771;48.478;8.936;2022-08-20T07:31:13;7.87;;;5.53;;
15342;SDS011;7771;48.478;8.936;2022-08-20T07:33:45;5.90;;;5.10;;
15342;SDS011;7771;48.478;8.936;2022-08-20T07:36:12;6.47;;;5.87;;
15342;SDS011;7771;48.478;8.936;2022-08-20T07:38:40;5.12;;;4.62;;
15342;SDS011;7771;48.478;8.936;2022-08-20T07:41:07;5.62;;;5.12;;
15342;SDS011;7771;48.478;8.936;2022-08-20T07:43:34;5.55;;;5.05;;
15342;SDS011;7771;48.478;8.936;2022-08-20T07:46:01;7.15;;;5.22;;
15342;SDS011;7771;48.478;8.936;2022-08-20T07:48:29;5.40;;;4.70;;
15342;SDS011;7771;48.478;8.936;2022-08-20T07:50:56;4.90;;;4.40;;
15342;SDS011;7771;48.478;8.936;2022-08-20T07:53:22;6.20;;;4.95;;
15342;SDS011;7771;48.478;8.936;2022-08-20T07:55:49;7.57;;;4.90;;
15342;SDS011;7771;48.478;8.936;2022-08-20T07:58:16;5.82;;;5.07;;
15342;SDS011;7771;48.478;8.936;2022-08-20T08:00:42;5.05;;;4.55;;
15342;SDS011;7771;48.478;8.936;2022-08-20T08:03:09;6.30;;;5.00;;
15342;SDS011;7771;48.478;8.936;2022-08-20T08:05:37;5.03;;;4.45;;
15342;SDS011;7771;48.478;8.936;2022-08-20T08:10:49;5.62;;;4.68;;
15342;SDS011;7771;48.478;8.936;2022-08-20T08:13:14;6.70;;;5.03;;
15342;SDS011;7771;48.478;8.936;2022-08-20T08:15:43;5.03;;;4.50;;
15342;SDS011;7771;48.478;8.936;2022-08-20T08:18:09;5.53;;;5.00;;
15342;SDS011;7771;48.478;8.936;2022-08-20T08:20:35;5.30;;;4.80;;
15342;SDS011;7771;48.478;8.936;2022-08-20T08:23:01;5.37;;;4.87;;
15342;SDS011;7771;48.478;8.936;2022-08-20T08:25:28;4.75;;;4.30;;
15342;SDS011;7771;48.478;8.936;2022-08-20T08:27:55;7.82;;;4.43;;
15342;SDS011;7771;48.478;8.936;2022-08-20T08:30:23;4.90;;;4.40;;
15342;SDS011;7771;48.478;8.936;2022-08-20T08:32:50;5.75;;;4.40;;
15342;SDS011;7771;48.478;8.936;2022-08-20T08:35:23;4.65;;;3.80;;
15342;SDS011;7771;48.478;8.936;2022-08-20T08:37:50;4.75;;;3.95;;
15342;SDS011;7771;48.478;8.936;2022-08-20T08:40:16;6.05;;;4.37;;
15342;SDS011;7771;48.478;8.936;2022-08-20T08:42:44;4.87;;;4.37;;
15342;SDS011;7771;48.478;8.936;2022-08-20T08:45:10;4.57;;;4.18;;
15342;SDS011;7771;48.478;8.936;2022-08-20T08:47:36;4.40;;;4.00;;
15342;SDS011;7771;48.478;8.936;2022-08-20T08:50:03;4.47;;;3.85;;
15342;SDS011;7771;48.478;8.936;2022-08-20T08:52:32;5.40;;;4.20;;
15342;SDS011;7771;48.478;8.936;2022-08-20T08:54:59;4.57;;;4.15;;
15342;SDS011;7771;48.478;8.936;2022-08-20T08:57:25;4.37;;;3.97;;
15342;SDS011;7771;48.478;8.936;2022-08-20T08:59:54;4.22;;;3.83;;
15342;SDS011;7771;48.478;8.936;2022-08-20T09:02:22;5.35;;;3.87;;
15342;SDS011;7771;48.478;8.936;2022-08-20T09:04:47;4.65;;;3.83;;
15342;SDS011;7771;48.478;8.936;2022-08-20T09:07:14;5.43;;;3.95;;
15342;SDS011;7771;48.478;8.936;2022-08-20T09:09:42;4.87;;;4.47;;
15342;SDS011;7771;48.478;8.936;2022-08-20T09:12:08;6.50;;;4.25;;
15342;SDS011;7771;48.478;8.936;2022-08-20T09:14:34;5.55;;;4.12;;
15342;SDS011;7771;48.478;8.936;2022-08-20T09:17:00;4.62;;;3.92;;
15342;SDS011;7771;48.478;8.936;2022-08-20T09:19:27;5.20;;;4.10;;
15342;SDS011;7771;48.478;8.936;2022-08-20T09:21:53;4.78;;;3.80;;
15342;SDS011;7771;48.478;8.936;2022-08-20T09:24:20;3.70;;;3.40;;
15342;SDS011;7771;48.478;8.936;2022-08-20T09:26:47;6.18;;;4.07;;
15342;SDS011;7771;48.478;8.936;2022-08-20T09:29:14;4.72;;;3.70;;
15342;SDS011;7771;48.478;8.936;2022-08-20T09:31:41;4.65;;;3.58;;
15342;SDS011;7771;48.478;8.936;2022-08-20T09:34:09;4.15;;;3.70;;
15342;SDS011;7771;48.478;8.936;2022-08-20T09:36:36;3.22;;;3.03;;
15342;SDS011;7771;48.478;8.936;2022-08-20T09:39:03;3.20;;;2.90;;
15342;SDS011;7771;48.478;8.936;2022-08-20T09:41:29;2.53;;;2.33;;
15342;SDS011;7771;48.478;8.936;2022-08-20T09:43:56;4.28;;;2.92;;
15342;SDS011;7771;48.478;8.936;2022-08-20T09:46:22;3.30;;;2.50;;
15342;SDS011;7771;48.478;8.936;2022-08-20T09:48:49;3.15;;;2.90;;
15342;SDS011;7771;48.478;8.936;2022-08-20T09:51:16;3.45;;;2.60;;
15342;SDS011;7771;48.478;8.936;2022-08-20T09:53:44;3.78;;;2.92;;
15342;SDS011;7771;48.478;8.936;2022-08-20T09:56:11;3.50;;;3.20;;
15342;SDS011;7771;48.478;8.936;2022-08-20T09:58:44;3.45;;;3.15;;
15342;SDS011;7771;48.478;8.936;2022-08-20T10:01:08;3.40;;;3.10;;
15342;SDS011;7771;48.478;8.936;2022-08-20T10:03:34;3.35;;;2.92;;
15342;SDS011;7771;48.478;8.936;2022-08-20T10:06:00;3.30;;;3.00;;
15342;SDS011;7771;48.478;8.936;2022-08-20T10:08:27;3.15;;;2.85;;
15342;SDS011;7771;48.478;8.936;2022-08-20T10:10:54;2.60;;;2.40;;
15342;SDS011;7771;48.478;8.936;2022-08-20T10:13:22;3.20;;;2.92;;
15342;SDS011;7771;48.478;8.936;2022-08-20T10:15:49;5.40;;;4.10;;
15342;SDS011;7771;48.478;8.936;2022-08-20T10:18:16;3.28;;;2.97;;
15342;SDS011;7771;48.478;8.936;2022-08-20T10:20:43;3.03;;;2.62;;
15342;SDS011;7771;48.478;8.936;2022-08-20T10:23:10;3.08;;;2.70;;
15342;SDS011;7771;48.478;8.936;2022-08-20T10:25:37;2.92;;;2.15;;
15342;SDS011;7771;48.478;8.936;2022-08-20T10:28:03;6.45;;;2.20;;
15342;SDS011;7771;48.478;8.936;2022-08-20T10:30:30;2.95;;;2.30;;
15342;SDS011;7771;48.478;8.936;2022-08-20T10:32:56;6.85;;;2.90;;
15342;SDS011;7771;48.478;8.936;2022-08-20T10:35:23;4.78;;;2.53;;
15342;SDS011;7771;48.478;8.936;2022-08-20T10:37:50;3.40;;;2.12;;
15342;SDS011;7771;48.478;8.936;2022-08-20T10:40:17;5.12;;;2.28;;
15342;SDS011;7771;48.478;8.936;2022-08-20T10:42:44;4.82;;;2.28;;
15342;SDS011;7771;48.478;8.936;2022-08-20T10:45:11;3.70;;;1.83;;
15342;SDS011;7771;48.478;8.936;2022-08-20T10:47:38;4.68;;;2.28;;
15342;SDS011;7771;48.478;8.936;2022-08-20T10:50:07;6.30;;;2.10;;
15342;SDS011;7771;48.478;8.936;2022-08-20T10:52:33;6.35;;;2.20;;
15342;SDS011;7771;48.478;8.936;2022-08-20T10:55:00;5.60;;;2.08;;
15342;SDS011;7771;48.478;8.936;2022-08-20T10:57:27;7.10;;;2.35;;
15342;SDS011;7771;48.478;8.936;2022-08-20T10:59:54;6.32;;;2.37;;
15342;SDS011;7771;48.478;8.936;2022-08-20T11:02:20;4.97;;;1.40;;
15342;SDS011;7771;48.478;8.936;2022-08-20T11:04:47;4.95;;;1.75;;
15342;SDS011;7771;48.478;8.936;2022-08-20T11:07:17;5.32;;;1.85;;
15342;SDS011;7771;48.478;8.936;2022-08-20T11:09:44;4.15;;;1.67;;
15342;SDS011;7771;48.478;8.936;2022-08-20T11:12:09;3.90;;;2.20;;
15342;SDS011;7771;48.478;8.936;2022-08-20T11:14:36;5.45;;;2.60;;
15342;SDS011;7771;48.478;8.936;2022-08-20T11:17:03;3.70;;;2.20;;
15342;SDS011;7771;48.478;8.936;2022-08-20T11:19:30;4.07;;;2.22;;
15342;SDS011;7771;48.478;8.936;2022-08-20T11:21:57;4.07;;;1.92;;
15342;SDS011;7771;48.478;8.936;2022-08-20T11:24:24;4.37;;;2.30;;
15342;SDS011;7771;48.478;8.936;2022-08-20T11:26:51;2.90;;;2.10;;
15342;SDS011;7771;48.478;8.936;2022-08-20T11:29:19;3.45;;;2.20;;
15342;SDS011;7771;48.478;8.936;2022-08-20T11:31:47;2.15;;;1.95;;
15342;SDS011;7771;48.478;8.936;2022-08-20T11:34:14;3.37;;;2.30;;
15342;SDS011;7771;48.478;8.936;2022-08-20T11:36:41;5.70;;;2.30;;
15342;SDS011;7771;48.478;8.936;2022-08-20T11:39:08;3.20;;;2.55;;
15342;SDS011;7771;48.478;8.936;2022-08-20T11:41:35;4.07;;;2.05;;
15342;SDS011;7771;48.478;8.936;2022-08-20T11:44:03;3.65;;;2.55;;
15342;SDS011;7771;48.478;8.936;2022-08-20T11:46:31;4.40;;;2.45;;
15342;SDS011;7771;48.478;8.936;2022-08-20T11:48:58;1.87;;;1.70;;
15342;SDS011;7771;48.478;8.936;2022-08-20T11:51:24;1.42;;;1.33;;
15342;SDS011;7771;48.478;8.936;2022-08-20T11:53:52;0.77;;;0.73;;
15342;SDS011;7771;48.478;8.936;2022-08-20T11:56:19;1.83;;;1.67;;
15342;SDS011;7771;48.478;8.936;2022-08-20T11:58:46;0.90;;;0.80;;
15342;SDS011;7771;48.478;8.936;2022-08-20T12:01:12;1.10;;;0.70;;
15342;SDS011;7771;48.478;8.936;2022-08-20T12:03:39;1.85;;;0.80;;
15342;SDS011;7771;48.478;8.936;2022-08-20T12:06:06;3.35;;;0.98;;
15342;SDS011;7771;48.478;8.936;2022-08-20T12:08:34;2.17;;;0.95;;
15342;SDS011;7771;48.478;8.936;2022-08-20T12:11:01;1.30;;;0.90;;
15342;SDS011;7771;48.478;8.936;2022-08-20T12:13:28;1.23;;;1.02;;
15342;SDS011;7771;48.478;8.936;2022-08-20T12:15:55;1.77;;;1.12;;
15342;SDS011;7771;48.478;8.936;2022-08-20T12:18:21;1.48;;;1.23;;
15342;SDS011;7771;48.478;8.936;2022-08-20T12:20:49;2.17;;;1.50;;
15342;SDS011;7771;48.478;8.936;2022-08-20T12:23:19;4.03;;;1.60;;
15342;SDS011;7771;48.478;8.936;2022-08-20T12:25:45;1.25;;;1.10;;
15342;SDS011;7771;48.478;8.936;2022-08-20T12:28:13;1.17;;;1.02;;
15342;SDS011;7771;48.478;8.936;2022-08-20T12:30:40;3.15;;;1.40;;
15342;SDS011;7771;48.478;8.936;2022-08-20T12:33:06;1.50;;;1.40;;
15342;SDS011;7771;48.478;8.936;2022-08-20T12:35:34;1.70;;;1.20;;
15342;SDS011;7771;48.478;8.936;2022-08-20T12:38:01;1.77;;;1.10;;
15342;SDS011;7771;48.478;8.936;2022-08-20T12:40:28;2.70;;;1.08;;
15342;SDS011;7771;48.478;8.936;2022-08-20T12:42:55;1.30;;;1.20;;
15342;SDS011;7771;48.478;8.936;2022-08-20T12:45:21;1.10;;;1.00;;
15342;SDS011;7771;48.478;8.936;2022-08-20T12:47:48;2.42;;;1.20;;
15342;SDS011;7771;48.478;8.936;2022-08-20T12:50:17;1.33;;;0.90;;
15342;SDS011;7771;48.478;8.936;2022-08-20T12:52:43;1.40;;;1.20;;
15342;SDS011;7771;48.478;8.936;2022-08-20T12:55:11;1.23;;;1.10;;
15342;SDS011;7771;48.478;8.936;2022-08-20T12:57:41;1.83;;;1.30;;
15342;SDS011;7771;48.478;8.936;2022-08-20T13:00:09;1.05;;;0.85;;
15342;SDS011;7771;48.478;8.936;2022-08-20T13:02:34;1.02;;;0.98;;
15342;SDS011;7771;48.478;8.936;2022-08-20T13:05:01;1.10;;;1.00;;
15342;SDS011;7771;48.478;8.936;2022-08-20T13:07:30;1.00;;;1.00;;
15342;SDS011;7771;48.478;8.936;2022-08-20T13:09:57;0.80;;;0.80;;
15342;SDS011;7771;48.478;8.936;2022-08-20T13:12:23;1.15;;;1.05;;
15342;SDS011;7771;48.478;8.936;2022-08-20T13:14:51;1.42;;;1.15;;
15342;SDS011;7771;48.478;8.936;2022-08-20T13:17:17;0.90;;;0.90;;
15342;SDS011;7771;48.478;8.936;2022-08-20T13:19:45;1.33;;;1.00;;
15342;SDS011;7771;48.478;8.936;2022-08-20T13:22:12;1.40;;;0.82;;
15342;SDS011;7771;48.478;8.936;2022-08-20T13:24:39;0.93;;;0.80;;
15342;SDS011;7771;48.478;8.936;2022-08-20T13:27:07;1.30;;;1.20;;
15342;SDS011;7771;48.478;8.936;2022-08-20T13:29:33;1.20;;;0.95;;
15342;SDS011;7771;48.478;8.936;2022-08-20T13:32:00;1.35;;;1.10;;
15342;SDS011;7771;48.478;8.936;2022-08-20T13:34:27;0.98;;;0.90;;
15342;SDS011;7771;48.478;8.936;2022-08-20T13:36:54;1.35;;;1.00;;
15342;SDS011;7771;48.478;8.936;2022-08-20T13:39:21;1.10;;;1.00;;
15342;SDS011;7771;48.478;8.936;2022-08-20T13:41:47;1.27;;;1.10;;
15342;SDS011;7771;48.478;8.936;2022-08-20T13:44:14;1.27;;;1.17;;
15342;SDS011;7771;48.478;8.936;2022-08-20T13:46:42;1.92;;;1.08;;
15342;SDS011;7771;48.478;8.936;2022-08-20T13:49:08;1.33;;;1.23;;
15342;SDS011;7771;48.478;8.936;2022-08-20T13:51:35;1.27;;;1.10;;
15342;SDS011;7771;48.478;8.936;2022-08-20T13:54:05;1.30;;;1.00;;
15342;SDS011;7771;48.478;8.936;2022-08-20T13:56:31;1.95;;;1.10;;
15342;SDS011;7771;48.478;8.936;2022-08-20T13:58:58;1.73;;;1.50;;
15342;SDS011;7771;48.478;8.936;2022-08-20T14:01:24;0.90;;;0.90;;
15342;SDS011;7771;48.478;8.936;2022-08-20T14:03:51;1.55;;;1.45;;
15342;SDS011;7771;48.478;8.936;2022-08-20T14:06:18;1.75;;;1.00;;
15342;SDS011;7771;48.478;8.936;2022-08-20T14:08:44;0.82;;;0.82;;
15342;SDS011;7771;48.478;8.936;2022-08-20T14:11:11;0.77;;;0.77;;
15342;SDS011;7771;48.478;8.936;2022-08-20T14:13:38;0.85;;;0.85;;
15342;SDS011;7771;48.478;8.936;2022-08-20T14:16:05;1.08;;;0.98;;
15342;SDS011;7771;48.478;8.936;2022-08-20T14:18:31;1.23;;;1.12;;
15342;SDS011;7771;48.478;8.936;2022-08-20T14:20:59;1.42;;;1.05;;
15342;SDS011;7771;48.478;8.936;2022-08-20T14:23:26;1.05;;;0.95;;
15342;SDS011;7771;48.478;8.936;2022-08-20T14:25:52;0.95;;;0.75;;
15342;SDS011;7771;48.478;8.936;2022-08-20T14:28:21;0.80;;;0.80;;
15342;SDS011;7771;48.478;8.936;2022-08-20T14:30:46;0.82;;;0.82;;
15342;SDS011;7771;48.478;8.936;2022-08-20T14:33:12;0.62;;;0.62;;
15342;SDS011;7771;48.478;8.936;2022-08-20T14:35:39;0.80;;;0.80;;
15342;SDS011;7771;48.478;8.936;2022-08-20T14:38:05;1.67;;;0.70;;
15342;SDS011;7771;48.478;8.936;2022-08-20T14:40:32;0.70;;;0.70;;
15342;SDS011;7771;48.478;8.936;2022-08-20T14:42:58;0.90;;;0.90;;
15342;SDS011;7771;48.478;8.936;2022-08-20T14:45:26;0.90;;;0.90;;
15342;SDS011;7771;48.478;8.936;2022-08-20T14:47:54;1.00;;;1.00;;
15342;SDS011;7771;48.478;8.936;2022-08-20T14:50:21;2.40;;;0.98;;
15342;SDS011;7771;48.478;8.936;2022-08-20T14:52:48;0.98;;;0.93;;
15342;SDS011;7771;48.478;8.936;2022-08-20T14:55:16;1.23;;;1.00;;
15342;SDS011;7771;48.478;8.936;2022-08-20T14:57:42;0.90;;;0.90;;
15342;SDS011;7771;48.478;8.936;2022-08-20T15:00:09;1.12;;;1.02;;
15342;SDS011;7771;48.478;8.936;2022-08-20T15:02:35;1.15;;;1.10;;